createdAt,value
2019-01-09T00:00:12.571Z,1.90
2019-01-09T00:02:34.808Z,1.90
2019-01-09T00:04:57.044Z,1.90
2019-01-09T00:07:19.303Z,1.90
2019-01-09T00:11:06.108Z,1.90
2019-01-09T00:13:28.363Z,1.90
2019-01-09T00:15:50.628Z,1.90
2019-01-09T00:18:12.891Z,1.90
2019-01-09T00:20:35.172Z,1.90
2019-01-09T00:22:57.437Z,1.90
2019-01-09T00:25:19.741Z,1.90
2019-01-09T00:27:42.028Z,1.90
2019-01-09T00:30:04.648Z,1.90
2019-01-09T00:32:26.880Z,1.90
2019-01-09T00:34:49.159Z,1.90
2019-01-09T00:37:11.391Z,1.80
2019-01-09T00:39:33.646Z,1.80
2019-01-09T00:41:55.875Z,1.80
2019-01-09T00:44:18.122Z,1.80
2019-01-09T00:46:40.395Z,1.80
2019-01-09T00:49:02.656Z,1.80
2019-01-09T00:51:24.887Z,1.80
2019-01-09T00:53:47.151Z,1.80
2019-01-09T00:56:09.434Z,1.80
2019-01-09T00:58:31.744Z,1.80
2019-01-09T01:00:54.003Z,1.80
2019-01-09T01:03:26.460Z,1.80
2019-01-09T01:06:02.930Z,1.80
2019-01-09T01:08:36.344Z,1.80
2019-01-09T01:11:40.575Z,1.80
2019-01-09T01:14:12.953Z,1.80
2019-01-09T01:19:04.939Z,1.80
2019-01-09T01:21:33.271Z,1.80
2019-01-09T01:24:09.634Z,1.80
2019-01-09T01:26:40.448Z,1.80
2019-01-09T01:30:19.266Z,1.80
2019-01-09T01:32:55.243Z,1.80
2019-01-09T01:37:31.454Z,1.80
2019-01-09T01:40:08.435Z,1.80
2019-01-09T01:42:44.771Z,1.70
2019-01-09T01:47:21.511Z,1.70
2019-01-09T01:49:52.373Z,1.80
2019-01-09T01:52:27.598Z,1.70
2019-01-09T01:55:03.499Z,1.80
2019-01-09T01:57:38.903Z,1.80
2019-01-09T02:00:17.079Z,1.70
2019-01-09T02:02:57.455Z,1.70
2019-01-09T02:05:28.031Z,1.70
2019-01-09T02:08:10.605Z,1.70
2019-01-09T02:11:48.976Z,1.70
2019-01-09T02:14:21.392Z,1.70
2019-01-09T02:16:54.395Z,1.70
2019-01-09T02:19:25.281Z,1.70
2019-01-09T02:22:06.599Z,1.70
2019-01-09T02:28:48.535Z,1.70
2019-01-09T02:33:17.879Z,1.70
2019-01-09T02:35:40.081Z,1.70
2019-01-09T02:38:02.348Z,1.60
2019-01-09T02:40:24.563Z,1.60
2019-01-09T02:42:46.771Z,1.60
2019-01-09T02:45:08.995Z,1.60
2019-01-09T02:47:31.267Z,1.60
2019-01-09T02:49:53.489Z,1.60
2019-01-09T02:52:15.796Z,1.50
2019-01-09T02:54:38.068Z,1.60
2019-01-09T02:57:00.293Z,1.60
2019-01-09T02:59:22.532Z,1.60
2019-01-09T03:01:44.748Z,1.60
2019-01-09T03:04:06.979Z,1.50
2019-01-09T03:06:29.491Z,1.50
2019-01-09T03:08:51.747Z,1.50
2019-01-09T03:11:13.966Z,1.50
2019-01-09T03:13:36.217Z,1.50
2019-01-09T03:15:58.439Z,1.50
2019-01-09T03:18:20.663Z,1.50
2019-01-09T03:20:42.898Z,1.40
2019-01-09T03:23:05.338Z,1.40
2019-01-09T03:25:27.580Z,1.40
2019-01-09T03:27:49.803Z,1.40
2019-01-09T03:30:12.039Z,1.40
2019-01-09T03:32:34.571Z,1.40
2019-01-09T03:34:56.819Z,1.40
2019-01-09T03:37:19.062Z,1.30
2019-01-09T03:39:41.424Z,1.30
2019-01-09T03:42:03.955Z,1.30
2019-01-09T03:44:26.365Z,1.30
2019-01-09T03:46:48.920Z,1.20
2019-01-09T03:49:11.175Z,1.20
2019-01-09T03:51:33.473Z,1.20
2019-01-09T03:53:55.697Z,1.20
2019-01-09T03:56:17.928Z,1.20
2019-01-09T03:58:40.167Z,1.20
2019-01-09T04:01:02.399Z,1.20
2019-01-09T04:03:24.631Z,1.20
2019-01-09T04:05:46.881Z,1.20
2019-01-09T04:08:09.128Z,1.20
2019-01-09T04:10:31.352Z,1.20
2019-01-09T04:12:53.574Z,1.20
2019-01-09T04:15:15.832Z,1.20
2019-01-09T04:17:38.086Z,1.20
2019-01-09T04:20:00.717Z,1.20
2019-01-09T04:22:22.947Z,1.10
2019-01-09T04:24:45.302Z,1.10
2019-01-09T04:27:07.598Z,1.10
2019-01-09T04:29:29.914Z,1.20
2019-01-09T04:31:52.224Z,1.10
2019-01-09T04:34:14.493Z,1.20
2019-01-09T04:36:36.724Z,1.20
2019-01-09T04:38:59.008Z,1.20
2019-01-09T04:41:21.243Z,1.10
2019-01-09T04:43:43.459Z,1.10
2019-01-09T04:46:05.681Z,1.00
2019-01-09T04:48:27.969Z,0.80
2019-01-09T04:50:50.183Z,0.70
2019-01-09T04:53:12.442Z,0.60
2019-01-09T04:57:04.258Z,0.50
2019-01-09T04:59:26.479Z,0.50
2019-01-09T05:01:49.033Z,0.60
2019-01-09T05:04:11.267Z,0.60
2019-01-09T05:06:33.491Z,0.60
2019-01-09T05:08:55.751Z,0.60
2019-01-09T05:11:18.003Z,0.70
2019-01-09T05:13:40.247Z,0.70
2019-01-09T05:16:02.500Z,0.70
2019-01-09T05:18:24.768Z,0.70
2019-01-09T05:20:46.987Z,0.80
2019-01-09T05:23:09.210Z,0.80
2019-01-09T05:25:31.587Z,0.80
2019-01-09T05:27:53.791Z,0.80
2019-01-09T05:30:16.040Z,0.80
2019-01-09T05:32:38.267Z,0.70
2019-01-09T05:35:00.546Z,0.80
2019-01-09T05:37:22.709Z,0.80
2019-01-09T05:39:44.932Z,0.70
2019-01-09T05:42:07.160Z,0.70
2019-01-09T05:44:29.405Z,0.70
2019-01-09T05:46:51.635Z,0.80
2019-01-09T05:49:13.904Z,0.70
2019-01-09T05:51:36.123Z,0.70
2019-01-09T05:53:58.343Z,0.80
2019-01-09T05:56:20.580Z,0.80
2019-01-09T05:58:42.823Z,0.80
2019-01-09T06:01:05.055Z,0.80
2019-01-09T06:03:27.339Z,0.80
2019-01-09T06:05:49.571Z,0.80
2019-01-09T06:08:11.947Z,0.90
2019-01-09T06:10:34.184Z,0.90
2019-01-09T06:12:56.465Z,0.90
2019-01-09T06:15:18.728Z,0.90
2019-01-09T06:17:40.980Z,0.90
2019-01-09T06:20:03.580Z,0.90
2019-01-09T06:22:25.800Z,0.90
2019-01-09T06:24:48.031Z,1.00
2019-01-09T06:27:10.283Z,1.00
2019-01-09T06:29:32.513Z,1.00
2019-01-09T06:31:54.757Z,1.00
2019-01-09T06:34:17.003Z,1.00
2019-01-09T06:36:39.236Z,1.00
2019-01-09T06:39:01.520Z,1.00
2019-01-09T06:41:23.849Z,1.00
2019-01-09T06:43:46.099Z,1.00
2019-01-09T06:46:08.313Z,1.00
2019-01-09T06:48:30.557Z,1.00
2019-01-09T06:50:52.926Z,1.00
2019-01-09T06:53:15.199Z,1.00
2019-01-09T06:55:37.402Z,1.00
2019-01-09T06:57:59.675Z,1.00
2019-01-09T07:00:21.930Z,1.00
2019-01-09T07:02:44.165Z,1.00
2019-01-09T07:05:06.455Z,1.00
2019-01-09T07:07:35.940Z,1.00
2019-01-09T07:09:50.943Z,1.00
2019-01-09T07:12:13.183Z,1.00
2019-01-09T07:14:35.423Z,1.00
2019-01-09T07:16:57.694Z,0.90
2019-01-09T07:19:19.924Z,0.90
2019-01-09T07:21:45.694Z,0.90
2019-01-09T07:24:04.423Z,1.00
2019-01-09T07:26:26.661Z,1.00
2019-01-09T07:28:48.884Z,0.90
2019-01-09T07:31:11.128Z,0.90
2019-01-09T07:33:33.345Z,0.90
2019-01-09T07:35:55.572Z,0.80
2019-01-09T07:38:17.781Z,0.90
2019-01-09T07:40:40.027Z,0.90
2019-01-09T07:43:02.277Z,0.90
2019-01-09T07:45:24.516Z,0.90
2019-01-09T07:47:46.736Z,0.90
2019-01-09T07:50:09.006Z,0.90
2019-01-09T07:52:31.235Z,0.90
2019-01-09T07:54:53.773Z,0.90
2019-01-09T07:57:16.083Z,0.90
2019-01-09T07:59:38.307Z,0.90
2019-01-09T08:02:00.544Z,0.90
2019-01-09T08:04:22.736Z,0.90
2019-01-09T08:06:44.997Z,0.90
2019-01-09T08:09:07.245Z,0.90
2019-01-09T08:11:29.467Z,0.90
2019-01-09T08:13:51.743Z,0.90
2019-01-09T08:16:13.971Z,0.90
2019-01-09T08:18:36.250Z,0.90
2019-01-09T08:21:05.198Z,0.90
2019-01-09T08:23:20.704Z,0.80
2019-01-09T08:25:42.920Z,0.80
2019-01-09T08:28:05.149Z,0.60
2019-01-09T08:30:27.423Z,0.50
2019-01-09T08:32:49.655Z,0.40
2019-01-09T08:35:11.986Z,0.30
2019-01-09T08:37:34.272Z,0.20
2019-01-09T08:39:56.532Z,0.20
2019-01-09T08:42:18.810Z,0.20
2019-01-09T08:44:41.037Z,0.30
2019-01-09T08:47:03.297Z,0.30
2019-01-09T08:49:25.566Z,0.30
2019-01-09T08:51:47.850Z,0.20
2019-01-09T08:54:10.104Z,0.20
2019-01-09T08:56:32.359Z,0.20
2019-01-09T08:58:54.611Z,0.20
2019-01-09T09:01:16.835Z,0.20
2019-01-09T09:03:39.128Z,0.20
2019-01-09T09:06:01.346Z,0.10
2019-01-09T09:08:23.641Z,0.20
2019-01-09T09:10:45.889Z,0.10
2019-01-09T09:13:09.079Z,0.10
2019-01-09T09:15:31.331Z,0.10
2019-01-09T09:17:53.580Z,0.10
2019-01-09T09:20:15.791Z,0.10
2019-01-09T09:22:38.111Z,0.20
2019-01-09T09:25:00.351Z,0.20
2019-01-09T09:27:22.927Z,0.30
2019-01-09T09:29:45.187Z,0.30
2019-01-09T09:32:07.453Z,0.30
2019-01-09T09:34:29.691Z,0.40
2019-01-09T09:36:51.907Z,0.40
2019-01-09T09:39:14.203Z,0.50
2019-01-09T09:41:36.476Z,0.50
2019-01-09T09:43:58.735Z,0.60
2019-01-09T09:46:20.987Z,0.60
2019-01-09T09:48:43.228Z,0.60
2019-01-09T09:51:05.503Z,0.60
2019-01-09T09:53:27.763Z,0.60
2019-01-09T09:55:50.018Z,0.70
2019-01-09T09:58:12.223Z,0.70
2019-01-09T10:00:34.469Z,0.70
2019-01-09T10:02:56.699Z,0.70
2019-01-09T10:05:18.963Z,0.70
2019-01-09T10:07:41.231Z,0.70
2019-01-09T10:10:03.865Z,0.70
2019-01-09T10:12:26.173Z,0.70
2019-01-09T10:14:48.482Z,0.80
2019-01-09T10:17:10.757Z,0.80
2019-01-09T10:19:33.037Z,0.70
2019-01-09T10:28:46.828Z,0.70
2019-01-09T10:31:09.111Z,0.70
2019-01-09T10:33:31.396Z,0.70
2019-01-09T10:35:53.652Z,0.70
2019-01-09T10:38:15.942Z,0.70
2019-01-09T10:40:38.190Z,0.70
2019-01-09T10:43:00.431Z,0.70
2019-01-09T10:45:22.708Z,0.70
2019-01-09T10:47:45.109Z,0.70
2019-01-09T10:50:08.057Z,0.70
2019-01-09T10:52:30.292Z,0.70
2019-01-09T10:54:52.567Z,0.80
2019-01-09T10:57:14.828Z,0.80
2019-01-09T10:59:37.057Z,0.80
2019-01-09T11:01:59.295Z,0.80
2019-01-09T11:04:21.547Z,0.80
2019-01-09T11:06:43.944Z,0.80
2019-01-09T11:09:07.143Z,0.80
2019-01-09T11:11:29.360Z,0.70
2019-01-09T11:13:51.685Z,0.80
2019-01-09T11:16:13.995Z,0.70
2019-01-09T11:18:36.260Z,0.70
2019-01-09T11:20:58.463Z,0.70
2019-01-09T11:23:20.680Z,0.80
2019-01-09T11:25:42.963Z,0.80
2019-01-09T11:28:05.201Z,0.80
2019-01-09T11:30:27.440Z,0.80
2019-01-09T11:32:49.772Z,0.80
2019-01-09T11:35:12.935Z,0.80
2019-01-09T11:37:35.224Z,0.80
2019-01-09T11:39:57.459Z,0.80
2019-01-09T11:42:19.739Z,0.80
2019-01-09T11:44:42.058Z,0.80
2019-01-09T11:47:04.424Z,0.80
2019-01-09T11:49:26.757Z,0.70
2019-01-09T11:51:49.004Z,0.70
2019-01-09T11:54:11.295Z,0.70
2019-01-09T11:56:33.557Z,0.80
2019-01-09T11:58:55.839Z,0.80
2019-01-09T12:01:18.152Z,0.80
2019-01-09T12:03:40.415Z,0.80
2019-01-09T12:06:02.760Z,0.80
2019-01-09T12:08:25.034Z,0.80
2019-01-09T12:10:47.326Z,0.90
2019-01-09T12:13:09.551Z,0.90
2019-01-09T12:15:31.843Z,0.80
2019-01-09T12:17:54.080Z,0.80
2019-01-09T12:20:17.225Z,0.80
2019-01-09T12:22:39.561Z,0.80
2019-01-09T12:25:01.913Z,0.80
2019-01-09T12:27:24.196Z,0.70
2019-01-09T12:29:46.457Z,0.70
2019-01-09T12:32:08.727Z,0.50
2019-01-09T12:34:30.989Z,0.40
2019-01-09T12:36:53.261Z,0.30
2019-01-09T12:39:15.519Z,0.30
2019-01-09T12:41:37.820Z,0.30
2019-01-09T12:44:00.154Z,0.30
2019-01-09T12:46:22.410Z,0.40
2019-01-09T12:48:44.649Z,0.40
2019-01-09T12:51:07.040Z,0.40
2019-01-09T12:53:33.773Z,0.40
2019-01-09T12:55:51.683Z,0.40
2019-01-09T12:58:15.478Z,0.40
2019-01-09T13:00:36.277Z,0.50
2019-01-09T13:02:58.567Z,0.50
2019-01-09T13:05:20.894Z,0.60
2019-01-09T13:07:43.207Z,0.60
2019-01-09T13:10:06.863Z,0.60
2019-01-09T13:12:29.127Z,0.60
2019-01-09T13:14:51.385Z,0.60
2019-01-09T13:17:13.635Z,0.60
2019-01-09T13:19:35.883Z,0.60
2019-01-09T13:21:58.115Z,0.60
2019-01-09T13:24:20.375Z,0.60
2019-01-09T13:26:42.660Z,0.50
2019-01-09T13:29:04.977Z,0.40
2019-01-09T13:31:27.254Z,0.30
2019-01-09T13:33:49.475Z,0.40
2019-01-09T13:36:11.768Z,0.40
2019-01-09T13:38:34.051Z,0.40
2019-01-09T13:40:56.276Z,0.40
2019-01-09T13:43:18.495Z,0.40
2019-01-09T13:45:40.711Z,0.50
2019-01-09T13:48:03.072Z,0.50
2019-01-09T13:50:25.330Z,0.50
2019-01-09T13:52:47.686Z,0.50
2019-01-09T13:55:11.585Z,0.60
2019-01-09T13:57:33.875Z,0.60
2019-01-09T13:59:56.123Z,0.60
2019-01-09T14:02:18.385Z,0.60
2019-01-09T14:04:40.629Z,0.60
2019-01-09T14:07:02.992Z,0.60
2019-01-09T14:09:25.251Z,0.60
2019-01-09T14:11:47.526Z,0.60
2019-01-09T14:14:09.773Z,0.50
2019-01-09T14:16:31.987Z,0.60
2019-01-09T14:18:55.415Z,0.60
2019-01-09T14:21:16.518Z,0.60
2019-01-09T14:23:38.813Z,0.60
2019-01-09T14:26:01.080Z,0.60
2019-01-09T14:28:23.385Z,0.70
2019-01-09T14:30:45.690Z,0.60
2019-01-09T14:33:07.919Z,0.60
2019-01-09T14:35:30.303Z,0.60
2019-01-09T14:37:52.655Z,0.50
2019-01-09T14:40:15.350Z,0.50
2019-01-09T14:42:37.599Z,0.50
2019-01-09T14:44:59.811Z,0.50
2019-01-09T14:47:22.018Z,0.50
2019-01-09T14:49:44.300Z,0.50
2019-01-09T14:52:06.596Z,0.50
2019-01-09T14:54:28.881Z,0.50
2019-01-09T14:56:51.135Z,0.50
2019-01-09T14:59:13.381Z,0.40
2019-01-09T15:01:35.631Z,0.40
2019-01-09T15:03:57.857Z,0.40
2019-01-09T15:06:20.633Z,0.40
2019-01-09T15:08:42.855Z,0.40
2019-01-09T15:11:05.137Z,0.40
2019-01-09T15:13:27.431Z,0.40
2019-01-09T15:15:49.689Z,0.40
2019-01-09T15:18:11.983Z,0.40
2019-01-09T15:20:34.224Z,0.40
2019-01-09T15:22:56.489Z,0.40
2019-01-09T15:25:18.747Z,0.40
2019-01-09T15:27:40.983Z,0.40
2019-01-09T15:30:04.765Z,0.30
2019-01-09T15:32:27.058Z,0.30
2019-01-09T15:34:49.222Z,0.30
2019-01-09T15:37:11.465Z,0.30
2019-01-09T15:39:33.680Z,0.30
2019-01-09T15:41:55.928Z,0.30
2019-01-09T15:44:18.166Z,0.30
2019-01-09T15:46:40.366Z,0.30
2019-01-09T15:49:02.655Z,0.30
2019-01-09T15:51:24.971Z,0.30
2019-01-09T15:53:47.243Z,0.30
2019-01-09T15:56:09.805Z,0.30
2019-01-09T15:58:32.083Z,0.30
2019-01-09T16:00:56.549Z,0.20
2019-01-09T16:03:18.823Z,0.20
2019-01-09T16:05:41.108Z,0.20
2019-01-09T16:08:03.584Z,0.30
2019-01-09T16:10:25.828Z,0.20
2019-01-09T16:12:48.395Z,0.20
2019-01-09T16:15:11.917Z,0.20
2019-01-09T16:17:34.200Z,0.10
2019-01-09T16:19:56.437Z,0.10
2019-01-09T16:22:18.698Z,0.20
2019-01-09T16:24:40.931Z,0.20
2019-01-09T16:27:03.219Z,0.20
2019-01-09T16:29:25.491Z,0.20
2019-01-09T16:31:47.803Z,0.20
2019-01-09T16:34:10.039Z,0.20
2019-01-09T16:36:33.101Z,0.20
2019-01-09T16:38:55.323Z,0.20
2019-01-09T16:41:17.579Z,0.20
2019-01-09T16:43:39.792Z,0.20
2019-01-09T16:46:02.072Z,0.20
2019-01-09T16:48:24.408Z,0.20
2019-01-09T16:50:46.607Z,0.20
2019-01-09T16:53:08.876Z,0.20
2019-01-09T16:55:31.432Z,0.20
2019-01-09T16:57:53.700Z,0.10
2019-01-09T17:00:19.527Z,0.10
2019-01-09T17:02:41.778Z,0.10
2019-01-09T17:05:04.556Z,0.10
2019-01-09T17:07:26.796Z,0.10
2019-01-09T17:09:49.069Z,0.20
2019-01-09T17:12:11.352Z,0.20
2019-01-09T17:14:33.699Z,0.20
2019-01-09T17:16:55.930Z,0.20
2019-01-09T17:19:18.167Z,0.20
2019-01-09T17:21:40.950Z,0.20
2019-01-09T17:24:03.218Z,0.20
2019-01-09T17:26:25.516Z,0.20
2019-01-09T17:28:47.779Z,0.20
2019-01-09T17:31:10.096Z,0.20
2019-01-09T17:33:32.359Z,0.20
2019-01-09T17:35:54.646Z,0.30
2019-01-09T17:38:16.936Z,0.30
2019-01-09T17:40:41.229Z,0.30
2019-01-09T17:43:01.479Z,0.30
2019-01-09T17:45:23.726Z,0.30
2019-01-09T17:47:46.022Z,0.30
2019-01-09T17:50:12.795Z,0.30
2019-01-09T17:52:35.084Z,0.30
2019-01-09T17:54:57.366Z,0.20
2019-01-09T17:57:19.668Z,0.20
2019-01-09T17:59:41.961Z,0.20
2019-01-09T18:02:04.260Z,0.20
2019-01-09T18:04:26.604Z,0.20
2019-01-09T18:06:48.921Z,0.30
2019-01-09T18:09:11.212Z,0.30
2019-01-09T18:11:33.680Z,0.30
2019-01-09T18:13:56.105Z,0.30
2019-01-09T18:16:18.456Z,0.20
2019-01-09T18:18:40.757Z,0.20
2019-01-09T18:21:03.364Z,0.20
2019-01-09T18:23:25.667Z,0.10
2019-01-09T18:25:47.943Z,0.20
2019-01-09T18:28:10.172Z,0.20
2019-01-09T18:30:37.811Z,0.20
2019-01-09T18:33:05.895Z,0.20
2019-01-09T18:35:33.968Z,0.20
2019-01-09T18:38:15.882Z,0.20
2019-01-09T18:40:45.000Z,0.20
2019-01-09T18:43:20.466Z,0.20
2019-01-09T18:47:59.099Z,0.10
2019-01-09T18:51:44.759Z,0.20
2019-01-09T18:54:07.007Z,0.20
2019-01-09T18:56:29.359Z,0.20
2019-01-09T18:58:51.742Z,0.10
2019-01-09T19:01:14.096Z,0.10
2019-01-09T19:03:36.344Z,0.10
2019-01-09T19:05:58.667Z,0.10
2019-01-09T19:08:20.965Z,0.10
2019-01-09T19:10:43.232Z,0.10
2019-01-09T19:13:05.515Z,0.10
2019-01-09T19:15:27.840Z,0.10
2019-01-09T19:17:50.102Z,0.10
2019-01-09T19:20:13.136Z,0.20
2019-01-09T19:22:35.423Z,0.10
2019-01-09T19:24:57.680Z,0.10
2019-01-09T19:27:19.961Z,0.10
2019-01-09T19:29:42.236Z,0.10
2019-01-09T19:32:05.590Z,0.10
2019-01-09T19:34:27.849Z,0.10
2019-01-09T19:36:50.164Z,0.00
2019-01-09T19:39:12.480Z,0.10
2019-01-09T19:41:34.745Z,0.10
2019-01-09T19:43:56.987Z,0.10
2019-01-09T19:46:19.267Z,0.10
2019-01-09T19:48:41.608Z,0.10
2019-01-09T19:51:06.213Z,0.00
2019-01-09T19:53:28.546Z,0.00
2019-01-09T19:55:50.820Z,0.00
2019-01-09T19:58:13.219Z,0.00
2019-01-09T20:00:35.639Z,0.00
2019-01-09T20:02:57.886Z,0.00
2019-01-09T20:05:20.214Z,0.00
2019-01-09T20:07:42.863Z,0.10
2019-01-09T20:10:07.644Z,0.10
2019-01-09T20:12:30.082Z,0.00
2019-01-09T20:14:52.409Z,0.00
2019-01-09T20:17:14.821Z,0.00
2019-01-09T20:19:37.412Z,0.00
2019-01-09T20:21:59.766Z,0.00
2019-01-09T20:24:22.142Z,0.00
2019-01-09T20:26:44.374Z,0.00
2019-01-09T20:29:06.747Z,-0.10
2019-01-09T20:31:29.363Z,-0.10
2019-01-09T20:33:51.571Z,-0.10
2019-01-09T20:36:14.349Z,-0.10
2019-01-09T20:38:36.172Z,0.00
2019-01-09T20:40:58.421Z,0.10
2019-01-09T20:43:20.667Z,0.00
2019-01-09T20:45:42.948Z,0.00
2019-01-09T20:48:05.221Z,0.00
2019-01-09T20:50:29.277Z,-0.10
2019-01-09T20:52:51.582Z,0.00
2019-01-09T20:55:14.386Z,0.00
2019-01-09T20:57:36.656Z,0.00
2019-01-09T20:59:58.927Z,0.00
2019-01-09T21:02:21.171Z,0.00
2019-01-09T21:04:43.424Z,0.00
2019-01-09T21:07:05.903Z,0.00
2019-01-09T21:09:28.125Z,0.00
2019-01-09T21:11:50.465Z,-0.10
2019-01-09T21:14:12.808Z,-0.10
2019-01-09T21:16:35.325Z,-0.10
2019-01-09T21:18:57.699Z,-0.10
2019-01-09T21:21:20.587Z,-0.10
2019-01-09T21:23:43.380Z,-0.10
2019-01-09T21:26:05.675Z,-0.10
2019-01-09T21:28:28.017Z,-0.10
2019-01-09T21:30:51.298Z,-0.10
2019-01-09T21:33:13.520Z,-0.10
2019-01-09T21:35:35.978Z,-0.10
2019-01-09T21:37:58.243Z,-0.10
2019-01-09T21:40:22.962Z,-0.10
2019-01-09T21:42:45.279Z,-0.10
2019-01-09T21:45:08.368Z,-0.10
2019-01-09T21:47:30.604Z,-0.10
2019-01-09T21:49:52.899Z,-0.10
2019-01-09T21:52:15.172Z,-0.20
2019-01-09T21:54:37.423Z,-0.20
2019-01-09T21:56:59.663Z,-0.10
2019-01-09T21:59:23.244Z,-0.10
2019-01-09T22:01:44.163Z,-0.10
2019-01-09T22:04:06.404Z,-0.20
2019-01-09T22:06:28.856Z,-0.20
2019-01-09T22:08:51.158Z,-0.10
2019-01-09T22:11:13.402Z,-0.10
2019-01-09T22:13:35.612Z,-0.10
2019-01-09T22:15:57.866Z,-0.10
2019-01-09T22:18:20.099Z,-0.10
2019-01-09T22:20:42.438Z,-0.10
2019-01-09T22:23:04.691Z,-0.10
2019-01-09T22:25:26.975Z,-0.10
2019-01-09T22:27:49.260Z,-0.10
2019-01-09T22:30:15.597Z,-0.10
2019-01-09T22:32:37.895Z,-0.10
2019-01-09T22:35:00.187Z,-0.10
2019-01-09T22:37:22.399Z,-0.10
2019-01-09T22:39:44.617Z,-0.10
2019-01-09T22:42:11.802Z,-0.10
2019-01-09T22:44:29.059Z,-0.10
2019-01-09T22:46:51.338Z,-0.10
2019-01-09T22:49:13.587Z,0.00
2019-01-09T22:51:35.844Z,0.00
2019-01-09T22:53:58.091Z,0.00
2019-01-09T22:56:20.311Z,0.00
2019-01-09T22:58:42.639Z,0.00
2019-01-09T23:01:12.889Z,0.00
2019-01-09T23:03:35.571Z,-0.10
2019-01-09T23:05:57.903Z,0.00
2019-01-09T23:08:20.187Z,0.00
2019-01-09T23:10:42.504Z,0.00
2019-01-09T23:13:04.761Z,0.00
2019-01-09T23:15:26.996Z,0.00
2019-01-09T23:17:49.239Z,0.00
2019-01-09T23:20:11.558Z,0.00
2019-01-09T23:22:33.871Z,-0.10
2019-01-09T23:24:56.100Z,0.00
2019-01-09T23:27:18.349Z,0.00
2019-01-09T23:29:40.628Z,0.00
2019-01-09T23:32:02.924Z,0.00
2019-01-09T23:34:25.183Z,0.00
2019-01-09T23:36:47.422Z,0.00
2019-01-09T23:39:10.039Z,-0.10
2019-01-09T23:41:32.267Z,-0.10
2019-01-09T23:43:54.557Z,0.00
2019-01-09T23:46:16.808Z,0.00
2019-01-09T23:48:39.011Z,0.00
2019-01-09T23:51:01.279Z,0.00
2019-01-09T23:53:23.575Z,0.00
2019-01-09T23:55:45.819Z,0.00
2019-01-09T23:58:08.071Z,0.00
